Hauptseite
METAR-TAF:

METAR-TAF

Flughäfen :

RAF Odiham

Odiham, England

Breite: 51-14N, Länge: 000-57W, Höhe: 123 m

Beobachtung

Neuester Wetterbericht von vor 45 Minuten, um 10:50 UTC
Wind 4 kt aus Ost/Südost
Temperatur 23°C
Luftfeuchtigkeit 44%
Luftdruck 1019 hPa
Sichtweite 10 km oder mehr
Leicht bewölkt in der Höhe von 4800 ft
Aufgelockert bewölkt in der Höhe von 7000 ft
Durchbrochene Bewölkung in der Höhe von 25000 ft

METAR: EGVO 191050Z 11004KT 9999 FEW048 SCT070 BKN250 23/10 Q1019 BLU NOSIG

Zeit: 12:35 (11:35 UTC)

Prognose

Neuester Wetterbericht von vor 1 Stunde und 13 Minuten, um 10:22 UTC
Gültige Prognose vom 19 um 12 UTC bis 19 um 24 UTC
Wind 4 kt aus unterschiedlichen Richtungen
Sichtweite 10 km oder mehr
Leicht bewölkt in der Höhe von 4800 ft

TAF: EGVO 191022Z 1912/1924 VRB04KT 9999 FEW048

Wetterbeobachtungen und Prognosen von mehr als 4000 Flughäfen (METAR und TAF Bericht).

Die verfügbaren Stationen werden durch gelbe und rote Markierungen auf der Karte dargestellt.

Führen Sie die Maus auf sie, um den Namen der Station zu sehen.

Darauf klicken, um die Beobachtung von Wetterbeobachtungen und Prognosen zu sehen.

Um die Karte zu ändern : klicken Sie auf den grünen Tasten mit einem schwarzen Kreuz Zum Vergrößern, auf den grünen Button mit einem Gedankenstrich zu verkleinern, oder auf die grünen Pfeile für benachbarte Karten.


METAR-TAF: